Time;durP1;ratioP1;P1;durP2;ratioP2;P2;SDS_P1;SDS_P2;PMS_P1;PMS_P2;Temp;Humidity;BMP_temperature;BMP_pressure;BME280_temperature;BME280_humidity;BME280_pressure;Samples;Min_cycle;Max_cycle;Signal;HPM_P1;HPM_P2
2023/07/22 00:01:28;;;;;;;9.27;6.43;;;13.90;99.90;;;;;;5001587;28;20034;-83
2023/07/22 00:03:53;;;;;;;10.68;6.38;;;14.00;99.90;;;;;;5018201;28;20741;-83
2023/07/22 00:06:20;;;;;;;11.32;7.32;;;13.80;99.90;;;;;;4994101;28;20184;-83
2023/07/22 00:08:45;;;;;;;11.75;6.80;;;13.90;99.90;;;;;;5029951;28;20037;-82
2023/07/22 00:11:11;;;;;;;13.27;7.55;;;13.90;99.90;;;;;;5035542;28;20120;-83
2023/07/22 00:13:36;;;;;;;11.10;6.72;;;14.10;99.90;;;;;;5015143;28;20037;-83
2023/07/22 00:16:04;;;;;;;9.07;6.85;;;13.90;99.90;;;;;;5030641;28;20034;-83
2023/07/22 00:18:32;;;;;;;11.57;6.97;;;13.90;99.90;;;;;;5033043;28;20124;-83
2023/07/22 00:20:58;;;;;;;9.35;7.57;;;14.00;99.90;;;;;;5061295;28;20036;-83
2023/07/22 00:23:24;;;;;;;11.52;7.47;;;13.90;99.90;;;;;;5059433;28;20037;-83
2023/07/22 00:25:51;;;;;;;10.27;6.55;;;13.90;99.90;;;;;;5040896;28;20084;-83
2023/07/22 00:28:18;;;;;;;11.65;6.55;;;14.00;99.90;;;;;;5025700;28;20047;-82
2023/07/22 00:30:44;;;;;;;12.52;7.20;;;14.40;99.90;;;;;;5046199;28;20033;-83
2023/07/22 00:33:09;;;;;;;17.35;6.20;;;14.00;99.90;;;;;;5059442;28;20549;-83
2023/07/22 00:35:35;;;;;;;9.90;6.95;;;13.90;99.90;;;;;;5044667;28;20476;-82
2023/07/22 00:38:01;;;;;;;9.18;6.30;;;14.80;99.90;;;;;;5061546;28;20049;-83
2023/07/22 00:40:27;;;;;;;9.73;7.00;;;13.90;99.90;;;;;;5031322;28;20083;-82
2023/07/22 00:42:53;;;;;;;10.90;7.35;;;13.90;99.90;;;;;;5059867;28;20037;-83
2023/07/22 00:45:18;;;;;;;8.73;6.78;;;13.60;99.90;;;;;;5040835;28;20065;-82
2023/07/22 00:47:45;;;;;;;7.60;6.38;;;13.30;99.90;;;;;;5044014;28;20039;-83
2023/07/22 00:50:11;;;;;;;10.68;6.40;;;14.50;99.90;;;;;;5027839;28;20045;-82
2023/07/22 00:52:37;;;;;;;9.70;7.13;;;13.40;99.90;;;;;;5046147;28;20096;-83
2023/07/22 00:55:04;;;;;;;11.50;7.30;;;13.50;99.90;;;;;;5044951;28;20052;-83
2023/07/22 00:57:30;;;;;;;11.43;6.28;;;13.30;99.90;;;;;;5043162;28;20045;-82
2023/07/22 00:59:56;;;;;;;9.00;6.68;;;13.60;99.90;;;;;;5030772;28;20052;-82
2023/07/22 01:02:22;;;;;;;10.68;7.07;;;13.30;99.90;;;;;;5044748;28;20488;-83
2023/07/22 01:04:50;;;;;;;10.40;6.55;;;13.90;99.90;;;;;;5064834;28;20047;-83
2023/07/22 01:07:16;;;;;;;9.48;7.00;;;13.20;99.90;;;;;;5032908;28;20037;-83
2023/07/22 01:09:42;;;;;;;13.88;7.25;;;13.10;99.90;;;;;;5062817;28;20052;-83
2023/07/22 01:12:09;;;;;;;11.43;7.10;;;13.10;99.90;;;;;;5064811;28;20033;-83
2023/07/22 01:14:36;;;;;;;9.55;7.30;;;13.00;99.90;;;;;;5032017;28;20036;-82
2023/07/22 01:17:08;;;;;;;13.10;7.28;;;13.00;99.90;;;;;;5045150;28;20091;-83
2023/07/22 01:19:34;;;;;;;11.38;6.55;;;13.10;99.90;;;;;;5060639;28;20060;-83
2023/07/22 01:22:01;;;;;;;10.73;6.78;;;13.60;99.90;;;;;;5062114;28;20095;-83
2023/07/22 01:24:28;;;;;;;10.55;6.68;;;13.20;99.90;;;;;;5044835;28;20071;-83
2023/07/22 01:26:54;;;;;;;10.20;7.30;;;13.10;99.90;;;;;;5048474;28;20047;-83
2023/07/22 01:29:24;;;;;;;11.20;6.40;;;13.10;99.90;;;;;;5024572;28;20061;-83
2023/07/22 01:31:52;;;;;;;10.65;7.10;;;13.30;99.90;;;;;;5050129;28;20119;-82
2023/07/22 01:34:18;;;;;;;16.80;7.20;;;13.50;99.90;;;;;;5037640;28;20637;-83
2023/07/22 01:36:45;;;;;;;11.10;6.40;;;13.80;99.90;;;;;;5037398;28;20041;-83
2023/07/22 01:39:11;;;;;;;9.25;6.68;;;13.10;99.90;;;;;;5035493;28;20116;-83
2023/07/22 01:41:37;;;;;;;9.90;6.88;;;13.00;99.90;;;;;;5055224;28;20083;-83
2023/07/22 01:44:03;;;;;;;8.88;6.43;;;13.10;99.90;;;;;;5056920;28;20040;-83
2023/07/22 01:46:28;;;;;;;7.18;5.85;;;13.00;99.90;;;;;;5058688;28;20029;-82
2023/07/22 01:48:55;;;;;;;8.40;6.53;;;13.20;99.90;;;;;;5040826;28;20120;-83
2023/07/22 01:51:21;;;;;;;10.32;6.65;;;13.60;99.90;;;;;;5052081;28;20043;-83
2023/07/22 01:53:47;;;;;;;14.82;7.05;;;12.60;99.90;;;;;;5054812;28;20044;-83
2023/07/22 01:56:13;;;;;;;10.07;6.72;;;12.60;99.90;;;;;;5029985;28;20041;-83
2023/07/22 01:58:38;;;;;;;9.90;6.15;;;12.50;99.90;;;;;;5040515;28;20040;-83
2023/07/22 02:01:04;;;;;;;10.40;8.35;;;12.40;99.90;;;;;;5039593;28;20561;-82
2023/07/22 02:03:30;;;;;;;9.43;6.65;;;12.40;99.90;;;;;;5056878;28;20041;-83
2023/07/22 02:06:05;;;;;;;9.77;7.18;;;12.30;99.90;;;;;;5036226;28;20472;-82
2023/07/22 02:08:31;;;;;;;11.52;7.43;;;12.30;99.90;;;;;;5041608;28;20483;-83
2023/07/22 02:11:08;;;;;;;11.13;6.80;;;12.40;99.90;;;;;;5027569;28;20060;-83
2023/07/22 02:13:34;;;;;;;10.15;7.35;;;12.80;99.90;;;;;;5056897;28;20045;-83
2023/07/22 02:16:01;;;;;;;16.90;8.98;;;12.80;99.90;;;;;;5039611;28;20041;-82
2023/07/22 02:18:27;;;;;;;10.77;7.82;;;13.00;99.90;;;;;;5022534;28;20044;-83
2023/07/22 02:20:54;;;;;;;10.48;7.20;;;12.60;99.90;;;;;;5026229;28;20037;-83
2023/07/22 02:23:19;;;;;;;12.88;8.23;;;12.60;99.90;;;;;;5039499;28;20095;-83
2023/07/22 02:25:51;;;;;;;10.70;7.90;;;12.50;99.90;;;;;;5035724;28;20040;-83
2023/07/22 02:28:21;;;;;;;10.38;8.27;;;12.60;99.90;;;;;;5035259;28;20045;-83
2023/07/22 02:30:47;;;;;;;13.82;9.13;;;12.60;99.90;;;;;;5060246;28;20568;-83
2023/07/22 02:33:13;;;;;;;12.07;10.40;;;12.40;99.90;;;;;;5023041;28;20108;-83
2023/07/22 02:35:40;;;;;;;12.50;8.93;;;12.50;99.90;;;;;;5036331;28;20076;-82
2023/07/22 02:38:06;;;;;;;11.98;8.27;;;12.60;99.90;;;;;;5060094;28;20049;-83
2023/07/22 02:40:34;;;;;;;12.27;8.77;;;13.10;99.90;;;;;;5044044;28;20044;-83
2023/07/22 02:43:00;;;;;;;13.23;8.02;;;12.50;99.90;;;;;;5056974;28;20068;-83
2023/07/22 02:45:26;;;;;;;14.68;9.30;;;12.40;99.90;;;;;;5042635;28;20032;-83
2023/07/22 02:47:51;;;;;;;10.10;8.02;;;13.20;99.90;;;;;;5041491;28;20033;-83
2023/07/22 02:50:17;;;;;;;12.27;9.35;;;12.50;99.90;;;;;;5021581;28;20032;-83
2023/07/22 02:52:43;;;;;;;12.98;8.77;;;12.60;99.90;;;;;;5042598;28;20044;-83
2023/07/22 02:55:11;;;;;;;13.85;8.70;;;12.50;99.90;;;;;;5020053;28;20036;-83
2023/07/22 02:57:38;;;;;;;13.18;8.38;;;12.60;99.90;;;;;;5044676;28;20044;-83
2023/07/22 03:00:08;;;;;;;13.32;8.77;;;12.60;99.90;;;;;;5039877;28;20827;-83
2023/07/22 03:02:35;;;;;;;12.95;8.90;;;12.60;99.90;;;;;;5058209;28;20037;-83
2023/07/22 03:05:04;;;;;;;11.77;8.95;;;12.60;99.90;;;;;;5024435;28;20072;-83
2023/07/22 03:07:30;;;;;;;11.57;8.40;;;12.60;99.90;;;;;;5036739;28;20037;-82
2023/07/22 03:09:55;;;;;;;11.77;8.35;;;12.60;99.90;;;;;;5026410;28;20048;-83
2023/07/22 03:12:21;;;;;;;10.82;8.95;;;12.80;99.90;;;;;;5035861;28;20527;-83
2023/07/22 03:14:46;;;;;;;12.65;8.32;;;12.90;99.90;;;;;;5038913;28;20083;-83
2023/07/22 03:17:16;;;;;;;16.70;9.38;;;12.90;99.90;;;;;;5040480;28;20041;-82
2023/07/22 03:19:41;;;;;;;12.00;9.23;;;13.00;99.90;;;;;;5033304;28;20139;-82
2023/07/22 03:22:07;;;;;;;12.90;8.10;;;12.60;99.90;;;;;;5022299;28;20045;-83
2023/07/22 03:24:32;;;;;;;12.80;9.57;;;13.00;99.90;;;;;;5057280;28;20098;-83
2023/07/22 03:26:58;;;;;;;14.85;9.20;;;12.60;99.90;;;;;;5034141;28;20036;-83
2023/07/22 03:29:24;;;;;;;14.18;9.27;;;12.60;99.90;;;;;;5051174;28;20029;-83
2023/07/22 03:31:50;;;;;;;11.85;8.95;;;12.50;99.90;;;;;;5034086;28;20231;-83
2023/07/22 03:34:15;;;;;;;13.32;10.30;;;12.90;99.90;;;;;;5054796;28;20164;-82
2023/07/22 03:36:41;;;;;;;14.30;8.82;;;13.00;99.90;;;;;;5022718;28;20089;-82
2023/07/22 03:39:07;;;;;;;12.90;9.27;;;12.70;99.90;;;;;;5040672;28;20505;-83
2023/07/22 03:41:33;;;;;;;11.80;7.95;;;13.50;99.90;;;;;;5053502;28;20049;-83
2023/07/22 03:43:58;;;;;;;13.90;8.60;;;12.80;99.90;;;;;;5059078;28;20112;-83
2023/07/22 03:46:24;;;;;;;12.52;8.68;;;13.20;99.90;;;;;;5021625;28;20065;-83
2023/07/22 03:48:49;;;;;;;11.35;8.60;;;12.70;99.90;;;;;;5054496;28;20093;-83
2023/07/22 03:51:15;;;;;;;13.48;9.07;;;13.30;99.90;;;;;;5055004;28;20075;-83
2023/07/22 03:53:41;;;;;;;13.05;9.20;;;12.80;99.90;;;;;;5037854;28;21096;-83
2023/07/22 03:56:06;;;;;;;19.80;8.48;;;12.90;99.90;;;;;;5050380;28;20072;-83
2023/07/22 03:58:32;;;;;;;19.45;8.55;;;12.90;99.90;;;;;;5054897;28;20033;-83
2023/07/22 04:00:57;;;;;;;13.68;8.93;;;13.10;99.90;;;;;;5053601;28;20040;-82
2023/07/22 04:03:23;;;;;;;14.95;9.82;;;13.40;99.90;;;;;;5018040;28;20099;-83
2023/07/22 04:05:55;;;;;;;13.60;9.05;;;12.90;99.90;;;;;;5034007;28;20081;-83
2023/07/22 04:08:21;;;;;;;14.98;9.65;;;13.00;99.90;;;;;;5018799;28;20057;-82
2023/07/22 04:10:54;;;;;;;12.85;9.52;;;13.00;99.90;;;;;;5035389;28;20040;-82
2023/07/22 04:13:20;;;;;;;12.07;8.80;;;13.50;99.90;;;;;;5021245;28;20093;-83
2023/07/22 04:15:47;;;;;;;15.63;9.40;;;13.10;99.90;;;;;;5041265;28;20083;-83
2023/07/22 04:18:12;;;;;;;12.27;9.82;;;13.10;99.90;;;;;;5033809;28;20049;-83
2023/07/22 04:20:38;;;;;;;13.65;10.13;;;13.20;99.90;;;;;;5031986;28;20052;-83
2023/07/22 04:23:03;;;;;;;12.75;9.52;;;13.70;99.90;;;;;;5033820;28;20041;-83
2023/07/22 04:25:29;;;;;;;15.70;9.70;;;13.30;99.90;;;;;;5056515;28;20069;-83
2023/07/22 04:27:55;;;;;;;15.23;9.88;;;13.30;99.90;;;;;;5037972;28;20034;-83
2023/07/22 04:30:21;;;;;;;14.20;9.60;;;13.40;99.90;;;;;;5034569;28;20044;-82
2023/07/22 04:32:49;;;;;;;13.02;10.13;;;13.60;99.90;;;;;;5055628;28;20033;-83
2023/07/22 04:35:21;;;;;;;12.80;10.52;;;13.50;99.90;;;;;;5038319;28;20041;-83
2023/07/22 04:37:47;;;;;;;14.73;9.95;;;13.60;99.90;;;;;;5021248;28;20036;-82
2023/07/22 04:40:17;;;;;;;16.42;10.60;;;13.60;99.90;;;;;;5033556;28;20096;-82
2023/07/22 04:42:43;;;;;;;13.00;10.18;;;13.60;99.90;;;;;;5053658;28;20048;-83
2023/07/22 04:45:13;;;;;;;13.88;10.57;;;13.50;99.90;;;;;;5026042;28;20033;-82
2023/07/22 04:48:27;;;;;;;14.02;10.05;;;13.70;99.90;;;;;;5007369;28;20049;-83
2023/07/22 04:51:11;;;;;;;14.15;10.68;;;13.60;99.90;;;;;;5040307;28;20374;-82
2023/07/22 04:53:37;;;;;;;14.38;10.98;;;13.70;99.90;;;;;;5007975;28;20056;-83
2023/07/22 04:56:09;;;;;;;14.82;10.88;;;13.70;99.90;;;;;;5036714;28;20362;-83
2023/07/22 04:58:38;;;;;;;16.58;10.88;;;13.80;99.90;;;;;;5022886;28;20036;-82
2023/07/22 05:01:05;;;;;;;18.58;11.93;;;13.80;99.90;;;;;;5025363;28;20037;-82
2023/07/22 05:03:31;;;;;;;16.40;10.57;;;14.60;99.90;;;;;;5036721;28;20060;-84
2023/07/22 05:06:18;;;;;;;18.20;11.20;;;13.80;99.90;;;;;;5033099;28;20090;-83
2023/07/22 05:50:11;;;;;;;12.73;10.15;;;14.20;99.90;;;;;;4975781;28;20057;-82
2023/07/22 06:01:54;;;;;;;17.23;11.43;;;14.50;99.90;;;;;;4937555;29;20099;-81
2023/07/22 06:04:20;;;;;;;14.38;10.77;;;14.50;99.90;;;;;;4981727;28;20444;-81
2023/07/22 06:06:45;;;;;;;14.32;12.43;;;14.50;99.90;;;;;;5037480;28;20035;-81
2023/07/22 06:09:11;;;;;;;16.08;10.60;;;14.60;99.90;;;;;;5051494;28;20083;-82
2023/07/22 06:11:36;;;;;;;17.63;11.27;;;14.70;99.90;;;;;;5039420;28;20106;-81
2023/07/22 06:14:02;;;;;;;16.05;10.85;;;14.70;99.90;;;;;;5037508;28;20515;-81
2023/07/22 06:16:32;;;;;;;13.65;10.57;;;14.70;99.90;;;;;;5037103;28;20040;-82
2023/07/22 06:19:24;;;;;;;13.98;10.35;;;14.80;99.90;;;;;;5046273;28;20056;-82
2023/07/22 06:21:56;;;;;;;14.77;10.77;;;14.80;99.90;;;;;;5021213;28;20093;-82
2023/07/22 06:24:22;;;;;;;14.43;10.85;;;14.80;99.90;;;;;;5042178;28;20040;-81
2023/07/22 06:26:48;;;;;;;13.15;10.50;;;14.90;99.90;;;;;;5059638;28;20033;-81
2023/07/22 06:29:14;;;;;;;15.75;11.80;;;14.90;99.90;;;;;;5024657;28;20041;-85
2023/07/22 06:31:57;;;;;;;12.98;10.13;;;15.20;99.90;;;;;;5057732;28;20029;-82
2023/07/22 06:34:24;;;;;;;15.82;10.13;;;16.00;99.90;;;;;;5026846;28;20040;-84
2023/07/22 06:38:04;;;;;;;11.15;9.93;;;15.80;99.90;;;;;;5034005;28;20091;-83
2023/07/22 06:40:58;;;;;;;11.15;9.63;;;16.10;99.90;;;;;;5025099;28;20069;-82
2023/07/22 06:44:13;;;;;;;11.18;10.05;;;16.70;99.90;;;;;;5062770;28;20061;-84
2023/07/22 06:51:18;;;;;;;14.55;9.98;;;16.70;99.90;;;;;;4983552;28;20037;-83
2023/07/22 07:01:16;;;;;;;11.93;10.05;;;16.60;99.90;;;;;;4894173;29;20043;-85
2023/07/22 07:07:32;;;;;;;16.63;10.55;;;16.60;99.90;;;;;;4891116;28;20101;-83
2023/07/22 07:09:58;;;;;;;10.30;8.68;;;17.10;99.90;;;;;;4982845;28;20094;-82
2023/07/22 07:12:23;;;;;;;11.77;9.07;;;16.70;99.90;;;;;;5056523;28;20033;-84
2023/07/22 07:14:53;;;;;;;11.35;8.00;;;16.80;99.90;;;;;;5047085;28;20025;-84
2023/07/22 07:17:22;;;;;;;13.43;8.75;;;17.00;99.90;;;;;;5045853;28;20058;-84
2023/07/22 07:19:48;;;;;;;10.02;8.02;;;16.80;99.90;;;;;;5031757;28;20081;-84
2023/07/22 07:22:13;;;;;;;8.20;7.40;;;16.80;99.90;;;;;;5062432;28;20056;-84
2023/07/22 07:24:39;;;;;;;11.77;9.10;;;16.80;99.90;;;;;;5047773;28;20100;-84
2023/07/22 07:27:07;;;;;;;8.80;7.93;;;17.00;99.90;;;;;;5030080;28;20083;-83
2023/07/22 07:29:33;;;;;;;10.43;8.25;;;17.40;99.90;;;;;;5049718;28;20032;-82
2023/07/22 07:31:58;;;;;;;9.88;8.85;;;17.50;99.90;;;;;;5049417;28;20045;-82
2023/07/22 07:34:24;;;;;;;9.93;8.88;;;17.60;99.90;;;;;;5046079;28;20032;-83
2023/07/22 07:36:49;;;;;;;9.05;8.23;;;17.80;99.90;;;;;;5031294;28;20045;-83
2023/07/22 07:39:15;;;;;;;11.02;8.82;;;17.90;99.90;;;;;;5029930;28;20087;-83
2023/07/22 07:41:41;;;;;;;12.57;8.93;;;18.30;99.90;;;;;;5047467;28;20056;-85
2023/07/22 07:44:06;;;;;;;10.02;9.02;;;18.40;99.90;;;;;;5051739;28;20033;-86
2023/07/22 07:46:32;;;;;;;11.23;9.77;;;18.90;99.90;;;;;;5031860;28;21502;-81
2023/07/22 07:56:39;;;;;;;12.52;9.43;;;19.40;99.90;;;;;;5025577;28;20061;-81
2023/07/22 07:59:09;;;;;;;12.52;10.10;;;19.30;99.90;;;;;;5010926;28;20060;-83
2023/07/22 08:06:17;;;;;;;11.68;10.07;;;19.20;99.90;;;;;;5062025;28;20544;-81
2023/07/22 08:09:23;;;;;;;12.23;10.43;;;19.20;99.90;;;;;;5014574;28;20051;-83
2023/07/22 08:20:18;;;;;;;13.82;10.73;;;18.80;99.90;;;;;;4945097;29;20087;-82
2023/07/22 09:37:49;;;;;;;5.32;4.68;;;18.10;99.90;;;;;;5077259;28;20023;-84
2023/07/22 09:40:20;;;;;;;5.90;4.10;;;18.30;99.90;;;;;;5073559;28;20093;-85
2023/07/22 10:35:36;;;;;;;7.85;5.50;;;17.70;99.90;;;;;;4877382;29;20101;-84
2023/07/22 11:11:45;;;;;;;6.85;5.20;;;16.90;99.90;;;;;;4940054;28;20640;-84
2023/07/22 11:14:21;;;;;;;10.23;7.07;;;16.80;99.90;;;;;;4956395;28;20046;-82
2023/07/22 11:17:05;;;;;;;11.93;7.60;;;16.70;99.90;;;;;;4965994;28;20043;-83
2023/07/22 11:19:39;;;;;;;8.00;7.03;;;16.60;99.90;;;;;;4976734;28;20577;-83
2023/07/22 11:22:06;;;;;;;11.63;8.30;;;16.90;99.90;;;;;;5024131;28;20067;-82
2023/07/22 11:25:24;;;;;;;11.65;9.02;;;16.50;99.90;;;;;;4989805;28;20522;-86
2023/07/22 11:28:35;;;;;;;10.50;8.48;;;16.50;99.90;;;;;;5009498;28;20643;-85
2023/07/22 11:31:47;;;;;;;11.40;8.70;;;16.50;99.90;;;;;;5032218;28;20067;-84
2023/07/22 11:34:46;;;;;;;12.00;9.40;;;16.50;99.90;;;;;;5028594;28;20041;-83
2023/07/22 11:37:27;;;;;;;10.25;8.15;;;16.70;99.90;;;;;;5019553;28;20131;-81
2023/07/22 11:39:54;;;;;;;10.05;8.35;;;16.70;99.90;;;;;;5009161;28;20045;-82
2023/07/22 11:42:20;;;;;;;12.45;7.57;;;16.70;99.90;;;;;;5012831;28;20056;-82
2023/07/22 11:44:45;;;;;;;9.13;8.13;;;16.70;99.90;;;;;;5030943;28;20049;-81
2023/07/22 11:47:11;;;;;;;9.02;7.97;;;16.70;99.90;;;;;;5047342;28;20079;-81
2023/07/22 11:49:46;;;;;;;11.05;8.57;;;16.70;99.90;;;;;;5026677;28;20128;-80
2023/07/22 11:52:19;;;;;;;7.82;7.03;;;16.60;99.90;;;;;;5028382;28;20431;-80
2023/07/22 11:54:46;;;;;;;9.27;7.75;;;16.60;99.90;;;;;;5043748;28;20052;-82
2023/07/22 11:57:23;;;;;;;8.65;6.97;;;16.60;99.90;;;;;;5027973;28;20087;-80
2023/07/22 11:59:51;;;;;;;8.57;7.68;;;16.70;99.90;;;;;;5020978;28;20119;-80
2023/07/22 12:02:21;;;;;;;8.52;7.63;;;16.60;99.90;;;;;;5042350;28;20061;-81
2023/07/22 12:04:58;;;;;;;8.25;7.45;;;16.70;99.90;;;;;;5046425;28;20052;-80
2023/07/22 12:07:26;;;;;;;7.50;6.80;;;16.70;99.90;;;;;;5043689;28;20061;-81
2023/07/22 12:09:53;;;;;;;7.55;6.80;;;16.70;99.90;;;;;;5008924;28;20049;-81
2023/07/22 12:12:19;;;;;;;7.97;7.25;;;16.70;99.90;;;;;;5044076;28;20049;-81
2023/07/22 12:14:45;;;;;;;8.93;8.02;;;16.80;99.90;;;;;;5023104;28;20076;-81
2023/07/22 12:17:10;;;;;;;8.85;7.95;;;16.80;99.90;;;;;;5029444;28;20069;-81
2023/07/22 12:19:36;;;;;;;9.35;6.95;;;16.80;99.90;;;;;;5027705;28;20041;-81
2023/07/22 12:22:02;;;;;;;10.02;7.45;;;16.80;99.90;;;;;;5043489;28;20052;-79
2023/07/22 12:24:32;;;;;;;9.55;7.63;;;16.80;99.90;;;;;;5032200;28;20053;-79
2023/07/22 12:26:58;;;;;;;8.20;7.13;;;16.80;99.90;;;;;;5043514;28;20045;-80
2023/07/22 12:29:24;;;;;;;8.88;7.20;;;16.90;99.90;;;;;;5024000;28;20041;-80
2023/07/22 12:31:49;;;;;;;7.65;6.95;;;16.80;99.90;;;;;;5030456;28;20036;-80
2023/07/22 12:34:15;;;;;;;9.10;7.65;;;16.80;99.90;;;;;;5045322;28;20037;-80
2023/07/22 12:36:41;;;;;;;8.95;7.63;;;16.70;99.90;;;;;;5045724;28;20040;-79
2023/07/22 12:39:06;;;;;;;9.40;7.78;;;16.70;99.90;;;;;;5025980;28;20052;-80
2023/07/22 12:41:32;;;;;;;9.38;8.45;;;16.70;99.90;;;;;;5027222;28;20800;-80
2023/07/22 12:43:58;;;;;;;9.70;8.40;;;16.50;99.90;;;;;;5031184;28;20036;-80
2023/07/22 12:46:23;;;;;;;11.68;9.52;;;16.70;99.90;;;;;;5031497;28;20112;-80
2023/07/22 12:48:49;;;;;;;12.55;9.93;;;16.70;99.90;;;;;;5047513;28;20515;-80
2023/07/22 12:51:15;;;;;;;14.38;10.48;;;16.70;99.90;;;;;;5026621;28;21656;-80
2023/07/22 12:53:40;;;;;;;11.93;10.70;;;16.70;99.90;;;;;;5030723;28;20045;-80
2023/07/22 12:56:06;;;;;;;10.98;9.88;;;16.70;99.90;;;;;;5048993;28;20093;-80
2023/07/22 12:58:31;;;;;;;7.47;6.88;;;16.70;99.90;;;;;;5029518;28;20037;-80
2023/07/22 13:00:58;;;;;;;7.43;6.07;;;16.70;99.90;;;;;;5048553;28;20029;-80
2023/07/22 13:03:23;;;;;;;9.20;5.35;;;16.60;99.90;;;;;;5012724;28;20120;-80
2023/07/22 13:05:49;;;;;;;5.60;5.10;;;16.60;99.90;;;;;;5030899;28;20543;-80
2023/07/22 13:08:14;;;;;;;5.82;4.97;;;16.50;99.90;;;;;;5033659;28;20595;-80
2023/07/22 13:10:43;;;;;;;5.45;4.95;;;16.50;99.90;;;;;;5011179;28;20123;-79
2023/07/22 13:13:10;;;;;;;5.40;4.40;;;16.50;99.90;;;;;;5029383;28;20377;-80
2023/07/22 13:15:36;;;;;;;6.32;4.65;;;16.50;99.90;;;;;;5041560;28;20116;-80
2023/07/22 13:18:02;;;;;;;5.00;3.90;;;16.60;99.90;;;;;;5026509;28;20108;-79
2023/07/22 13:20:28;;;;;;;7.25;4.43;;;16.60;99.90;;;;;;5026447;28;20041;-80
2023/07/22 13:22:55;;;;;;;6.20;4.40;;;16.60;99.90;;;;;;5029018;28;20068;-80
2023/07/22 13:25:21;;;;;;;11.60;3.63;;;16.70;99.90;;;;;;5011101;28;20041;-78
2023/07/22 13:27:46;;;;;;;5.60;4.03;;;16.70;99.90;;;;;;5042729;28;20099;-81
2023/07/22 13:30:13;;;;;;;5.85;3.25;;;16.80;99.90;;;;;;5025576;28;20043;-80
2023/07/22 13:32:39;;;;;;;7.00;3.88;;;16.90;99.90;;;;;;5043128;28;20396;-80
2023/07/22 13:35:05;;;;;;;4.72;3.30;;;16.90;99.90;;;;;;5027307;28;20041;-81
2023/07/22 13:37:30;;;;;;;5.30;3.13;;;16.90;99.90;;;;;;5045905;28;20045;-80
2023/07/22 13:39:57;;;;;;;6.95;3.90;;;17.00;99.90;;;;;;5024322;28;20060;-80
2023/07/22 13:42:23;;;;;;;5.13;4.32;;;17.10;99.90;;;;;;5024830;28;20127;-80
2023/07/22 13:44:48;;;;;;;4.80;3.75;;;17.10;99.90;;;;;;5025374;28;20579;-80
2023/07/22 13:47:14;;;;;;;5.97;3.88;;;17.20;99.90;;;;;;5026616;28;20036;-80
2023/07/22 13:49:39;;;;;;;4.43;3.33;;;17.30;99.90;;;;;;5045472;28;20115;-81
2023/07/22 13:52:05;;;;;;;4.70;3.45;;;17.40;99.90;;;;;;5046233;28;20553;-80
2023/07/22 13:54:31;;;;;;;4.88;3.90;;;17.50;99.90;;;;;;5044082;28;20037;-80
2023/07/22 13:56:56;;;;;;;6.30;3.95;;;17.70;99.90;;;;;;5024609;28;20056;-81
2023/07/22 13:59:22;;;;;;;5.93;4.43;;;17.80;99.90;;;;;;5044535;28;20052;-80
2023/07/22 14:01:47;;;;;;;5.13;4.05;;;17.90;99.90;;;;;;5026172;28;20076;-81
2023/07/22 14:04:13;;;;;;;6.20;4.22;;;18.00;99.90;;;;;;5040139;28;20048;-81
2023/07/22 14:06:38;;;;;;;7.13;4.78;;;18.10;99.90;;;;;;5038553;28;20114;-81
2023/07/22 14:09:04;;;;;;;4.95;4.20;;;18.30;99.90;;;;;;5011152;28;20136;-80
2023/07/22 14:11:30;;;;;;;6.60;4.88;;;18.20;99.90;;;;;;5025524;28;20060;-80
2023/07/22 14:13:56;;;;;;;7.30;4.63;;;18.30;99.90;;;;;;5042587;28;20033;-80
2023/07/22 14:16:21;;;;;;;5.72;5.20;;;18.30;99.90;;;;;;5025657;28;20041;-82
2023/07/22 14:18:48;;;;;;;5.85;4.97;;;18.20;99.90;;;;;;5008482;28;20029;-82
2023/07/22 14:21:13;;;;;;;6.22;5.45;;;18.10;99.90;;;;;;5031276;28;20505;-82
2023/07/22 14:23:39;;;;;;;6.18;5.47;;;18.20;99.90;;;;;;5045342;28;20174;-81
2023/07/22 14:26:05;;;;;;;7.20;5.50;;;18.10;99.90;;;;;;5026701;28;20028;-80
2023/07/22 14:28:31;;;;;;;7.82;5.60;;;18.10;99.90;;;;;;5041359;28;20159;-81
2023/07/22 14:30:56;;;;;;;6.45;5.32;;;18.10;99.90;;;;;;5046766;28;20044;-81
2023/07/22 14:33:22;;;;;;;6.47;5.88;;;18.10;99.90;;;;;;5031782;28;20057;-81
2023/07/22 14:35:47;;;;;;;7.18;5.72;;;18.20;99.90;;;;;;5026578;28;20044;-81
2023/07/22 14:38:13;;;;;;;7.68;5.65;;;18.20;99.90;;;;;;5028588;28;20087;-81
2023/07/22 14:40:38;;;;;;;6.07;5.35;;;18.20;99.90;;;;;;5030887;28;20056;-81
2023/07/22 14:43:04;;;;;;;6.53;5.70;;;18.10;99.90;;;;;;5024343;28;20058;-81
2023/07/22 14:45:30;;;;;;;7.00;5.30;;;18.10;99.90;;;;;;5045686;28;20064;-81
2023/07/22 14:47:55;;;;;;;5.82;4.97;;;18.10;99.90;;;;;;5044662;28;20075;-82
2023/07/22 14:50:22;;;;;;;9.95;6.13;;;18.10;99.90;;;;;;5028305;28;20798;-82
2023/07/22 14:52:47;;;;;;;6.88;6.18;;;18.10;99.90;;;;;;5046185;28;20041;-81
2023/07/22 14:55:13;;;;;;;7.35;6.60;;;18.10;99.90;;;;;;5010837;28;20048;-81
2023/07/22 14:57:39;;;;;;;7.80;6.53;;;18.00;99.90;;;;;;5043905;28;20033;-81
2023/07/22 15:00:06;;;;;;;8.32;7.10;;;17.70;99.90;;;;;;5026679;28;20057;-81
2023/07/22 15:02:32;;;;;;;7.57;6.35;;;17.70;99.90;;;;;;5029605;28;20036;-81
2023/07/22 15:04:58;;;;;;;8.02;6.80;;;17.70;99.90;;;;;;5027574;28;20057;-81
2023/07/22 15:07:24;;;;;;;8.25;7.00;;;17.60;99.90;;;;;;5028642;28;20040;-81
2023/07/22 15:09:51;;;;;;;7.88;6.28;;;17.60;99.90;;;;;;5032769;28;20072;-81
2023/07/22 15:12:16;;;;;;;6.88;5.57;;;17.60;99.90;;;;;;5045840;28;20044;-81
2023/07/22 15:14:43;;;;;;;6.40;5.60;;;17.50;99.90;;;;;;5030010;28;20053;-81
2023/07/22 15:17:09;;;;;;;11.23;5.40;;;17.40;99.90;;;;;;5046766;28;20510;-81
2023/07/22 15:19:35;;;;;;;5.85;3.42;;;17.40;99.90;;;;;;5013348;28;20132;-81
2023/07/22 15:22:01;;;;;;;3.42;2.80;;;17.40;99.90;;;;;;5028379;28;20519;-80
2023/07/22 15:24:26;;;;;;;3.42;2.53;;;17.40;99.90;;;;;;5026024;28;20048;-82
2023/07/22 15:26:52;;;;;;;5.95;2.30;;;17.40;99.90;;;;;;5026006;28;20744;-81
2023/07/22 15:29:17;;;;;;;3.38;2.10;;;17.30;99.90;;;;;;5027074;28;20147;-82
2023/07/22 15:31:43;;;;;;;6.53;2.72;;;17.40;99.90;;;;;;5023381;28;20204;-82
2023/07/22 15:34:09;;;;;;;5.05;2.05;;;17.40;99.90;;;;;;5030978;28;20049;-81
2023/07/22 15:36:35;;;;;;;4.72;2.33;;;17.30;99.90;;;;;;5047395;28;20072;-82
2023/07/22 15:39:00;;;;;;;2.63;2.05;;;17.20;99.90;;;;;;5030998;28;20048;-82
2023/07/22 15:41:26;;;;;;;5.35;1.80;;;17.20;99.90;;;;;;5030822;28;20078;-81
2023/07/22 15:44:01;;;;;;;3.97;2.17;;;17.20;99.90;;;;;;5042872;28;20117;-82
2023/07/22 15:46:43;;;;;;;4.28;1.88;;;17.10;99.90;;;;;;5024670;28;20052;-80
2023/07/22 15:49:09;;;;;;;4.35;2.08;;;17.00;99.90;;;;;;5042967;28;20048;-82
2023/07/22 15:51:35;;;;;;;5.55;2.30;;;17.00;99.90;;;;;;5026819;28;20044;-82
2023/07/22 15:54:00;;;;;;;3.95;2.22;;;17.00;99.90;;;;;;5048081;28;20647;-82
2023/07/22 15:56:26;;;;;;;2.78;1.50;;;17.00;99.90;;;;;;5024962;28;20029;-82
2023/07/22 15:58:51;;;;;;;5.18;2.38;;;17.00;99.90;;;;;;5025455;28;20120;-81
2023/07/22 16:01:17;;;;;;;3.78;1.83;;;17.00;99.90;;;;;;5047059;28;20119;-80
2023/07/22 16:03:43;;;;;;;3.50;2.20;;;17.00;99.90;;;;;;5023462;28;20045;-81
2023/07/22 16:06:08;;;;;;;2.55;1.85;;;17.00;99.90;;;;;;5024955;28;20041;-81
2023/07/22 16:08:33;;;;;;;4.53;1.80;;;17.00;99.90;;;;;;5043667;28;20032;-81
2023/07/22 16:10:59;;;;;;;6.82;2.22;;;16.90;99.90;;;;;;5025821;28;20052;-81
2023/07/22 16:13:25;;;;;;;3.92;2.15;;;17.00;99.90;;;;;;5031151;28;20037;-81
2023/07/22 16:15:50;;;;;;;5.00;1.85;;;17.00;99.90;;;;;;5025483;28;20395;-83
2023/07/22 16:18:16;;;;;;;7.68;2.10;;;17.00;99.90;;;;;;5042746;28;20040;-82
2023/07/22 16:20:41;;;;;;;3.15;2.15;;;17.00;99.90;;;;;;5020811;28;20033;-82
2023/07/22 16:23:07;;;;;;;4.30;2.20;;;17.00;99.90;;;;;;5025023;28;20120;-81
2023/07/22 16:25:32;;;;;;;4.70;2.65;;;17.10;99.90;;;;;;5023506;28;20115;-80
2023/07/22 16:27:58;;;;;;;3.72;3.00;;;17.10;99.90;;;;;;5024646;28;20085;-82
2023/07/22 16:30:25;;;;;;;6.90;3.00;;;17.10;99.90;;;;;;5025829;28;20136;-82
2023/07/22 16:32:51;;;;;;;6.20;4.55;;;17.10;99.90;;;;;;5030250;28;20041;-82
2023/07/22 16:35:17;;;;;;;7.28;4.43;;;17.20;99.90;;;;;;5039469;28;20045;-83
2023/07/22 16:37:42;;;;;;;6.75;4.53;;;17.10;99.90;;;;;;5042838;28;20671;-82
2023/07/22 16:40:10;;;;;;;5.10;4.60;;;17.10;99.90;;;;;;5043331;28;20037;-82
2023/07/22 16:42:43;;;;;;;6.50;4.75;;;17.10;99.90;;;;;;5024484;28;20041;-82
2023/07/22 16:45:09;;;;;;;4.28;3.08;;;17.10;99.90;;;;;;5010527;28;20041;-83
2023/07/22 16:47:40;;;;;;;6.30;3.67;;;17.10;99.90;;;;;;5028814;28;20399;-83
2023/07/22 16:50:07;;;;;;;7.15;3.50;;;17.00;99.90;;;;;;5026639;28;20072;-82
2023/07/22 16:52:33;;;;;;;6.18;3.30;;;17.00;99.90;;;;;;5029901;28;20120;-83
2023/07/22 16:54:58;;;;;;;6.85;3.67;;;17.00;99.90;;;;;;5047883;28;20186;-83